This is the latest recevied weather packets stored in our database for station/object KO4YAW. If no packets are shown the sender has not sent any weather packets the latest 10 day(s).
| Time | Temp. | Humidity | Pressure | Rain* | Wind** | Luminosity | Snow |
|---|---|---|---|---|---|---|---|
| 1777817732 | 13.33° C | 34% | 1017.7 hPa | 0 mm | - | 222 W/m² | - |
| 1777816832 | 12.22° C | 35% | 1017.8 hPa | 0 mm | - | 185 W/m² | - |
| 1777815932 | 11.67° C | 37% | 1017.8 hPa | 0 mm | - | 174 W/m² | - |
| 1777815032 | 11.11° C | 36% | 1017.7 hPa | 0 mm | - | 121 W/m² | - |
| 1777814132 | 10.56° C | 36% | 1017.7 hPa | 0 mm | - | 88 W/m² | - |
| 1777813232 | 10.56° C | 36% | 1017.6 hPa | 0 mm | - | 72 W/m² | - |
| 1777812332 | 10.56° C | 36% | 1017.2 hPa | 0 mm | - | 50 W/m² | - |
| 1777811432 | 10° C | 36% | 1017.2 hPa | 0 mm | - | 32 W/m² | - |
| 1777810532 | 10° C | 37% | 1017.1 hPa | 0 mm | - | 16 W/m² | - |
| 1777809632 | 10° C | 37% | 1017.1 hPa | 0 mm | - | 5 W/m² | - |
| 1777808732 | 10° C | 36% | 1017 hPa | 0 mm | - | 1 W/m² | - |
| 1777807832 | 9.44° C | 37% | 1017 hPa | 0 mm | - | 0 W/m² | - |
| 1777806932 | 9.44° C | 37% | 1017 hPa | 0 mm | - | 0 W/m² | - |
| 1777806032 | 9.44° C | 37% | 1016.9 hPa | 0 mm | - | 0 W/m² | - |
| 1777805132 | 9.44° C | 38% | 1016.9 hPa | 0 mm | - | 0 W/m² | - |
| 1777804232 | 9.44° C | 38% | 1016.9 hPa | 0 mm | - | 0 W/m² | - |
| 1777803332 | 10° C | 37% | 1017 hPa | 0 mm | - | 0 W/m² | - |
| 1777802432 | 10° C | 37% | 1017.2 hPa | 0 mm | - | 0 W/m² | - |
| 1777801532 | 10° C | 36% | 1017.5 hPa | 0 mm | - | 0 W/m² | - |
| 1777800632 | 10° C | 36% | 1017.3 hPa | 0 mm | - | 0 W/m² | - |
| 1777799732 | 10° C | 36% | 1017.5 hPa | 0 mm | - | 0 W/m² | - |
| 1777798832 | 10° C | 35% | 1017.5 hPa | 0 mm | - | 0 W/m² | - |
| 1777797932 | 10° C | 35% | 1017.3 hPa | 0 mm | - | 0 W/m² | - |
| 1777797032 | 10.56° C | 35% | 1017.3 hPa | 0 mm | - | 0 W/m² | - |
| 1777796132 | 10.56° C | 34% | 1017.5 hPa | 0 mm | - | 0 W/m² | - |
* Rain since midnight (hover to see other rain measurements)
** Current wind speed in m/s (hover to see current wind gust speed)